sensor_id;sensor_type;location;lat;lon;timestamp;P1;durP1;ratioP1;P2;durP2;ratioP2
65751;SDS011;52486;51.098;13.770;2022-07-18T00:02:16;762.13;;;309.80;;
65751;SDS011;52486;51.098;13.770;2022-07-18T00:04:42;708.40;;;289.07;;
65751;SDS011;52486;51.098;13.770;2022-07-18T00:07:08;677.78;;;277.13;;
65751;SDS011;52486;51.098;13.770;2022-07-18T00:09:38;664.92;;;271.95;;
65751;SDS011;52486;51.098;13.770;2022-07-18T00:12:05;653.23;;;267.80;;
65751;SDS011;52486;51.098;13.770;2022-07-18T00:14:31;631.65;;;258.77;;
65751;SDS011;52486;51.098;13.770;2022-07-18T00:16:57;610.77;;;250.33;;
65751;SDS011;52486;51.098;13.770;2022-07-18T00:19:24;591.60;;;241.65;;
65751;SDS011;52486;51.098;13.770;2022-07-18T00:21:50;567.70;;;231.35;;
65751;SDS011;52486;51.098;13.770;2022-07-18T00:24:16;550.67;;;223.68;;
65751;SDS011;52486;51.098;13.770;2022-07-18T00:26:41;536.63;;;217.33;;
65751;SDS011;52486;51.098;13.770;2022-07-18T00:29:07;523.00;;;211.35;;
65751;SDS011;52486;51.098;13.770;2022-07-18T00:31:33;513.90;;;206.70;;
65751;SDS011;52486;51.098;13.770;2022-07-18T00:33:59;517.40;;;208.25;;
65751;SDS011;52486;51.098;13.770;2022-07-18T00:36:25;512.90;;;206.27;;
65751;SDS011;52486;51.098;13.770;2022-07-18T00:38:52;512.40;;;206.00;;
65751;SDS011;52486;51.098;13.770;2022-07-18T00:41:17;514.37;;;207.17;;
65751;SDS011;52486;51.098;13.770;2022-07-18T00:43:43;523.22;;;211.88;;
65751;SDS011;52486;51.098;13.770;2022-07-18T00:46:09;525.28;;;212.73;;
65751;SDS011;52486;51.098;13.770;2022-07-18T00:48:36;534.75;;;216.93;;
65751;SDS011;52486;51.098;13.770;2022-07-18T00:51:03;545.30;;;222.52;;
65751;SDS011;52486;51.098;13.770;2022-07-18T00:53:29;549.53;;;224.23;;
65751;SDS011;52486;51.098;13.770;2022-07-18T00:55:55;550.45;;;224.45;;
65751;SDS011;52486;51.098;13.770;2022-07-18T00:58:21;587.63;;;240.63;;
65751;SDS011;52486;51.098;13.770;2022-07-18T01:00:46;517.42;;;208.25;;
65751;SDS011;52486;51.098;13.770;2022-07-18T01:03:31;475.23;;;188.40;;
65751;SDS011;52486;51.098;13.770;2022-07-18T01:05:56;435.55;;;174.10;;
65751;SDS011;52486;51.098;13.770;2022-07-18T01:08:22;409.95;;;164.77;;
65751;SDS011;52486;51.098;13.770;2022-07-18T01:10:48;396.50;;;159.87;;
65751;SDS011;52486;51.098;13.770;2022-07-18T01:13:15;399.23;;;160.93;;
65751;SDS011;52486;51.098;13.770;2022-07-18T01:15:41;397.98;;;160.57;;
65751;SDS011;52486;51.098;13.770;2022-07-18T01:18:06;400.95;;;161.60;;
65751;SDS011;52486;51.098;13.770;2022-07-18T01:20:32;428.43;;;171.17;;
65751;SDS011;52486;51.098;13.770;2022-07-18T01:22:58;401.15;;;161.70;;
65751;SDS011;52486;51.098;13.770;2022-07-18T01:25:24;406.60;;;163.90;;
65751;SDS011;52486;51.098;13.770;2022-07-18T01:27:51;407.50;;;163.95;;
65751;SDS011;52486;51.098;13.770;2022-07-18T01:30:17;404.85;;;162.98;;
65751;SDS011;52486;51.098;13.770;2022-07-18T01:32:43;424.55;;;169.77;;
65751;SDS011;52486;51.098;13.770;2022-07-18T01:35:08;434.37;;;173.53;;
65751;SDS011;52486;51.098;13.770;2022-07-18T01:37:34;439.80;;;175.32;;
65751;SDS011;52486;51.098;13.770;2022-07-18T01:40:00;468.40;;;185.07;;
65751;SDS011;52486;51.098;13.770;2022-07-18T01:42:25;501.70;;;200.97;;
65751;SDS011;52486;51.098;13.770;2022-07-18T01:44:51;532.78;;;214.82;;
65751;SDS011;52486;51.098;13.770;2022-07-18T01:47:17;551.92;;;224.55;;
65751;SDS011;52486;51.098;13.770;2022-07-18T01:49:42;542.93;;;219.60;;
65751;SDS011;52486;51.098;13.770;2022-07-18T01:52:08;548.70;;;223.00;;
65751;SDS011;52486;51.098;13.770;2022-07-18T01:54:35;538.65;;;218.75;;
65751;SDS011;52486;51.098;13.770;2022-07-18T01:57:02;543.00;;;219.70;;
65751;SDS011;52486;51.098;13.770;2022-07-18T01:59:29;541.08;;;218.75;;
65751;SDS011;52486;51.098;13.770;2022-07-18T02:01:55;541.28;;;218.95;;
65751;SDS011;52486;51.098;13.770;2022-07-18T02:04:20;531.57;;;214.40;;
65751;SDS011;52486;51.098;13.770;2022-07-18T02:07:06;517.90;;;208.25;;
65751;SDS011;52486;51.098;13.770;2022-07-18T02:09:32;477.93;;;189.80;;
65751;SDS011;52486;51.098;13.770;2022-07-18T02:11:57;496.80;;;198.97;;
65751;SDS011;52486;51.098;13.770;2022-07-18T02:14:23;492.58;;;197.07;;
65751;SDS011;52486;51.098;13.770;2022-07-18T02:16:48;488.57;;;194.93;;
65751;SDS011;52486;51.098;13.770;2022-07-18T02:19:14;502.75;;;201.57;;
65751;SDS011;52486;51.098;13.770;2022-07-18T02:21:40;480.73;;;191.23;;
65751;SDS011;52486;51.098;13.770;2022-07-18T02:24:06;485.80;;;193.75;;
65751;SDS011;52486;51.098;13.770;2022-07-18T02:26:32;438.70;;;175.75;;
65751;SDS011;52486;51.098;13.770;2022-07-18T02:28:58;439.67;;;176.27;;
65751;SDS011;52486;51.098;13.770;2022-07-18T02:31:24;454.83;;;181.67;;
65751;SDS011;52486;51.098;13.770;2022-07-18T02:33:49;462.73;;;184.20;;
65751;SDS011;52486;51.098;13.770;2022-07-18T02:36:15;429.15;;;172.88;;
65751;SDS011;52486;51.098;13.770;2022-07-18T02:38:40;387.30;;;159.03;;
65751;SDS011;52486;51.098;13.770;2022-07-18T02:41:06;393.80;;;161.70;;
65751;SDS011;52486;51.098;13.770;2022-07-18T02:43:32;377.97;;;156.33;;
65751;SDS011;52486;51.098;13.770;2022-07-18T02:45:57;379.60;;;156.73;;
65751;SDS011;52486;51.098;13.770;2022-07-18T02:48:23;373.13;;;155.27;;
65751;SDS011;52486;51.098;13.770;2022-07-18T02:50:49;363.80;;;152.63;;
65751;SDS011;52486;51.098;13.770;2022-07-18T02:53:14;352.73;;;150.55;;
65751;SDS011;52486;51.098;13.770;2022-07-18T02:55:40;338.17;;;146.43;;
65751;SDS011;52486;51.098;13.770;2022-07-18T02:58:05;356.77;;;151.20;;
65751;SDS011;52486;51.098;13.770;2022-07-18T03:00:31;348.15;;;149.20;;
65751;SDS011;52486;51.098;13.770;2022-07-18T03:02:57;339.90;;;146.97;;
65751;SDS011;52486;51.098;13.770;2022-07-18T03:05:22;341.35;;;148.07;;
65751;SDS011;52486;51.098;13.770;2022-07-18T03:07:48;359.48;;;152.32;;
65751;SDS011;52486;51.098;13.770;2022-07-18T03:10:14;349.20;;;149.33;;
65751;SDS011;52486;51.098;13.770;2022-07-18T03:12:40;341.92;;;147.90;;
65751;SDS011;52486;51.098;13.770;2022-07-18T03:15:07;332.65;;;146.13;;
65751;SDS011;52486;51.098;13.770;2022-07-18T03:17:32;331.75;;;145.60;;
65751;SDS011;52486;51.098;13.770;2022-07-18T03:19:58;354.98;;;150.75;;
65751;SDS011;52486;51.098;13.770;2022-07-18T03:22:24;363.97;;;153.00;;
65751;SDS011;52486;51.098;13.770;2022-07-18T03:24:50;381.90;;;157.60;;
65751;SDS011;52486;51.098;13.770;2022-07-18T03:27:15;367.00;;;153.77;;
65751;SDS011;52486;51.098;13.770;2022-07-18T03:29:41;351.05;;;149.85;;
65751;SDS011;52486;51.098;13.770;2022-07-18T03:32:07;368.60;;;153.93;;
65751;SDS011;52486;51.098;13.770;2022-07-18T03:34:32;359.87;;;151.93;;
65751;SDS011;52486;51.098;13.770;2022-07-18T03:36:58;348.90;;;149.25;;
65751;SDS011;52486;51.098;13.770;2022-07-18T03:39:24;337.50;;;146.53;;
65751;SDS011;52486;51.098;13.770;2022-07-18T03:41:51;339.93;;;147.23;;
65751;SDS011;52486;51.098;13.770;2022-07-18T03:44:17;354.17;;;150.67;;
65751;SDS011;52486;51.098;13.770;2022-07-18T03:46:42;357.07;;;150.97;;
65751;SDS011;52486;51.098;13.770;2022-07-18T03:49:08;367.58;;;153.60;;
65751;SDS011;52486;51.098;13.770;2022-07-18T03:51:34;337.53;;;146.50;;
65751;SDS011;52486;51.098;13.770;2022-07-18T03:54:00;327.87;;;144.60;;
65751;SDS011;52486;51.098;13.770;2022-07-18T03:56:25;316.08;;;141.15;;
65751;SDS011;52486;51.098;13.770;2022-07-18T03:58:51;306.15;;;138.35;;
65751;SDS011;52486;51.098;13.770;2022-07-18T04:01:17;290.20;;;135.03;;
65751;SDS011;52486;51.098;13.770;2022-07-18T04:03:42;280.30;;;132.18;;
65751;SDS011;52486;51.098;13.770;2022-07-18T04:06:08;276.13;;;130.55;;
65751;SDS011;52486;51.098;13.770;2022-07-18T04:08:34;287.27;;;133.87;;
65751;SDS011;52486;51.098;13.770;2022-07-18T04:10:59;285.33;;;133.00;;
65751;SDS011;52486;51.098;13.770;2022-07-18T04:13:25;278.07;;;130.90;;
65751;SDS011;52486;51.098;13.770;2022-07-18T04:15:50;274.07;;;129.73;;
65751;SDS011;52486;51.098;13.770;2022-07-18T04:18:17;294.55;;;135.55;;
65751;SDS011;52486;51.098;13.770;2022-07-18T04:20:43;300.73;;;136.87;;
65751;SDS011;52486;51.098;13.770;2022-07-18T04:23:09;316.23;;;140.80;;
65751;SDS011;52486;51.098;13.770;2022-07-18T04:25:36;313.63;;;139.98;;
65751;SDS011;52486;51.098;13.770;2022-07-18T04:28:05;303.93;;;137.90;;
65751;SDS011;52486;51.098;13.770;2022-07-18T04:30:33;318.83;;;142.50;;
65751;SDS011;52486;51.098;13.770;2022-07-18T04:33:00;310.23;;;140.07;;
65751;SDS011;52486;51.098;13.770;2022-07-18T04:35:27;298.05;;;136.65;;
65751;SDS011;52486;51.098;13.770;2022-07-18T04:37:53;292.37;;;134.90;;
65751;SDS011;52486;51.098;13.770;2022-07-18T04:40:19;299.87;;;137.83;;
65751;SDS011;52486;51.098;13.770;2022-07-18T04:42:45;308.90;;;139.18;;
65751;SDS011;52486;51.098;13.770;2022-07-18T04:45:11;309.37;;;139.50;;
65751;SDS011;52486;51.098;13.770;2022-07-18T04:47:37;308.55;;;139.45;;
65751;SDS011;52486;51.098;13.770;2022-07-18T04:50:04;305.73;;;138.55;;
65751;SDS011;52486;51.098;13.770;2022-07-18T04:52:40;310.97;;;140.07;;
65751;SDS011;52486;51.098;13.770;2022-07-18T04:55:09;303.63;;;138.10;;
65751;SDS011;52486;51.098;13.770;2022-07-18T04:57:36;293.50;;;135.48;;
65751;SDS011;52486;51.098;13.770;2022-07-18T05:00:21;276.83;;;130.95;;
65751;SDS011;52486;51.098;13.770;2022-07-18T05:02:49;281.02;;;131.98;;
65751;SDS011;52486;51.098;13.770;2022-07-18T05:05:16;274.40;;;130.10;;
65751;SDS011;52486;51.098;13.770;2022-07-18T05:07:44;254.82;;;125.03;;
65751;SDS011;52486;51.098;13.770;2022-07-18T05:10:11;250.98;;;123.95;;
65751;SDS011;52486;51.098;13.770;2022-07-18T05:12:38;246.20;;;122.75;;
65751;SDS011;52486;51.098;13.770;2022-07-18T05:15:05;249.10;;;123.63;;
65751;SDS011;52486;51.098;13.770;2022-07-18T05:17:32;254.35;;;124.82;;
65751;SDS011;52486;51.098;13.770;2022-07-18T05:19:57;254.82;;;125.00;;
65751;SDS011;52486;51.098;13.770;2022-07-18T05:22:23;248.00;;;123.10;;
65751;SDS011;52486;51.098;13.770;2022-07-18T05:24:49;225.43;;;116.80;;
65751;SDS011;52486;51.098;13.770;2022-07-18T05:27:15;273.35;;;130.45;;
65751;SDS011;52486;51.098;13.770;2022-07-18T05:29:40;260.20;;;126.28;;
65751;SDS011;52486;51.098;13.770;2022-07-18T05:32:06;243.83;;;122.30;;
65751;SDS011;52486;51.098;13.770;2022-07-18T05:34:32;240.13;;;121.47;;
65751;SDS011;52486;51.098;13.770;2022-07-18T05:36:58;269.90;;;128.60;;
65751;SDS011;52486;51.098;13.770;2022-07-18T05:39:24;264.47;;;127.93;;
65751;SDS011;52486;51.098;13.770;2022-07-18T05:41:49;280.52;;;131.63;;
65751;SDS011;52486;51.098;13.770;2022-07-18T05:44:15;290.47;;;135.37;;
65751;SDS011;52486;51.098;13.770;2022-07-18T05:46:41;264.15;;;126.38;;
65751;SDS011;52486;51.098;13.770;2022-07-18T05:49:06;201.67;;;108.03;;
65751;SDS011;52486;51.098;13.770;2022-07-18T05:51:32;213.47;;;111.03;;
65751;SDS011;52486;51.098;13.770;2022-07-18T05:53:58;197.15;;;105.07;;
65751;SDS011;52486;51.098;13.770;2022-07-18T05:56:23;185.32;;;103.90;;
65751;SDS011;52486;51.098;13.770;2022-07-18T05:58:49;211.33;;;110.67;;
65751;SDS011;52486;51.098;13.770;2022-07-18T06:01:15;213.55;;;112.10;;
65751;SDS011;52486;51.098;13.770;2022-07-18T06:03:45;228.63;;;115.22;;
65751;SDS011;52486;51.098;13.770;2022-07-18T06:06:14;240.32;;;119.38;;
65751;SDS011;52486;51.098;13.770;2022-07-18T06:08:40;234.17;;;116.77;;
65751;SDS011;52486;51.098;13.770;2022-07-18T06:11:06;225.77;;;113.73;;
65751;SDS011;52486;51.098;13.770;2022-07-18T06:13:34;221.38;;;113.05;;
65751;SDS011;52486;51.098;13.770;2022-07-18T06:16:01;200.85;;;106.28;;
65751;SDS011;52486;51.098;13.770;2022-07-18T06:18:27;185.40;;;102.03;;
65751;SDS011;52486;51.098;13.770;2022-07-18T06:20:53;169.05;;;96.32;;
65751;SDS011;52486;51.098;13.770;2022-07-18T06:23:18;154.43;;;92.67;;
65751;SDS011;52486;51.098;13.770;2022-07-18T06:25:44;153.82;;;91.72;;
65751;SDS011;52486;51.098;13.770;2022-07-18T06:28:10;147.88;;;91.03;;
65751;SDS011;52486;51.098;13.770;2022-07-18T06:30:35;159.07;;;93.90;;
65751;SDS011;52486;51.098;13.770;2022-07-18T06:33:01;187.75;;;103.30;;
65751;SDS011;52486;51.098;13.770;2022-07-18T06:35:31;214.43;;;110.68;;
65751;SDS011;52486;51.098;13.770;2022-07-18T06:37:56;214.80;;;111.05;;
65751;SDS011;52486;51.098;13.770;2022-07-18T06:40:22;216.70;;;109.80;;
65751;SDS011;52486;51.098;13.770;2022-07-18T06:42:50;227.52;;;114.03;;
65751;SDS011;52486;51.098;13.770;2022-07-18T06:45:16;210.25;;;108.40;;
65751;SDS011;52486;51.098;13.770;2022-07-18T06:47:42;232.85;;;113.60;;
65751;SDS011;52486;51.098;13.770;2022-07-18T06:50:09;230.85;;;115.03;;
65751;SDS011;52486;51.098;13.770;2022-07-18T06:52:37;215.20;;;110.70;;
65751;SDS011;52486;51.098;13.770;2022-07-18T06:55:04;197.75;;;106.20;;
65751;SDS011;52486;51.098;13.770;2022-07-18T06:57:30;198.73;;;107.13;;
65751;SDS011;52486;51.098;13.770;2022-07-18T06:59:56;180.85;;;101.05;;
65751;SDS011;52486;51.098;13.770;2022-07-18T07:02:22;174.32;;;98.97;;
65751;SDS011;52486;51.098;13.770;2022-07-18T07:04:47;168.20;;;96.80;;
65751;SDS011;52486;51.098;13.770;2022-07-18T07:07:13;181.90;;;101.03;;
65751;SDS011;52486;51.098;13.770;2022-07-18T07:09:39;174.65;;;100.65;;
65751;SDS011;52486;51.098;13.770;2022-07-18T07:12:04;145.63;;;90.63;;
65751;SDS011;52486;51.098;13.770;2022-07-18T07:14:30;136.67;;;87.43;;
65751;SDS011;52486;51.098;13.770;2022-07-18T07:16:57;116.55;;;79.35;;
65751;SDS011;52486;51.098;13.770;2022-07-18T07:19:22;101.05;;;73.32;;
65751;SDS011;52486;51.098;13.770;2022-07-18T07:21:48;79.00;;;64.03;;
65751;SDS011;52486;51.098;13.770;2022-07-18T07:24:13;54.47;;;48.97;;
65751;SDS011;52486;51.098;13.770;2022-07-18T07:26:39;50.38;;;45.40;;
65751;SDS011;52486;51.098;13.770;2022-07-18T07:29:05;72.20;;;60.73;;
65751;SDS011;52486;51.098;13.770;2022-07-18T07:31:30;66.60;;;58.38;;
65751;SDS011;52486;51.098;13.770;2022-07-18T07:33:57;70.37;;;59.17;;
65751;SDS011;52486;51.098;13.770;2022-07-18T07:36:23;69.45;;;58.85;;
65751;SDS011;52486;51.098;13.770;2022-07-18T07:38:50;59.28;;;52.50;;
65751;SDS011;52486;51.098;13.770;2022-07-18T07:41:17;70.40;;;59.17;;
65751;SDS011;52486;51.098;13.770;2022-07-18T07:43:42;65.90;;;58.17;;
65751;SDS011;52486;51.098;13.770;2022-07-18T07:46:08;66.97;;;55.93;;
65751;SDS011;52486;51.098;13.770;2022-07-18T07:48:37;63.05;;;54.53;;
65751;SDS011;52486;51.098;13.770;2022-07-18T07:51:03;57.88;;;51.78;;
65751;SDS011;52486;51.098;13.770;2022-07-18T07:53:29;59.58;;;53.35;;
65751;SDS011;52486;51.098;13.770;2022-07-18T07:55:55;57.75;;;51.75;;
65751;SDS011;52486;51.098;13.770;2022-07-18T07:58:21;54.63;;;48.88;;
65751;SDS011;52486;51.098;13.770;2022-07-18T08:00:47;55.05;;;49.55;;
65751;SDS011;52486;51.098;13.770;2022-07-18T08:03:13;57.30;;;51.43;;
65751;SDS011;52486;51.098;13.770;2022-07-18T08:05:45;57.65;;;51.78;;
65751;SDS011;52486;51.098;13.770;2022-07-18T08:08:12;55.60;;;50.13;;
65751;SDS011;52486;51.098;13.770;2022-07-18T08:10:38;55.23;;;49.47;;
65751;SDS011;52486;51.098;13.770;2022-07-18T08:13:04;56.00;;;50.37;;
65751;SDS011;52486;51.098;13.770;2022-07-18T08:15:29;58.80;;;52.75;;
65751;SDS011;52486;51.098;13.770;2022-07-18T08:17:55;51.35;;;46.53;;
65751;SDS011;52486;51.098;13.770;2022-07-18T08:20:21;51.10;;;46.03;;
65751;SDS011;52486;51.098;13.770;2022-07-18T08:22:54;52.72;;;47.65;;
65751;SDS011;52486;51.098;13.770;2022-07-18T08:25:21;52.93;;;47.73;;
65751;SDS011;52486;51.098;13.770;2022-07-18T08:27:47;52.57;;;47.23;;
65751;SDS011;52486;51.098;13.770;2022-07-18T08:30:12;46.67;;;42.05;;
65751;SDS011;52486;51.098;13.770;2022-07-18T08:32:38;56.88;;;51.03;;
65751;SDS011;52486;51.098;13.770;2022-07-18T08:35:04;62.80;;;55.13;;
65751;SDS011;52486;51.098;13.770;2022-07-18T08:37:30;55.40;;;49.80;;
65751;SDS011;52486;51.098;13.770;2022-07-18T08:39:56;48.70;;;44.03;;
65751;SDS011;52486;51.098;13.770;2022-07-18T08:42:22;44.90;;;40.70;;
65751;SDS011;52486;51.098;13.770;2022-07-18T08:44:51;32.42;;;29.77;;
65751;SDS011;52486;51.098;13.770;2022-07-18T08:47:19;32.33;;;29.40;;
65751;SDS011;52486;51.098;13.770;2022-07-18T08:49:46;37.40;;;33.83;;
65751;SDS011;52486;51.098;13.770;2022-07-18T08:52:12;47.22;;;42.65;;
65751;SDS011;52486;51.098;13.770;2022-07-18T08:54:38;40.85;;;36.85;;
65751;SDS011;52486;51.098;13.770;2022-07-18T08:57:04;41.97;;;38.22;;
65751;SDS011;52486;51.098;13.770;2022-07-18T08:59:30;43.75;;;39.88;;
65751;SDS011;52486;51.098;13.770;2022-07-18T09:01:56;44.93;;;40.73;;
65751;SDS011;52486;51.098;13.770;2022-07-18T09:04:31;47.42;;;42.85;;
65751;SDS011;52486;51.098;13.770;2022-07-18T09:07:01;46.23;;;42.00;;
65751;SDS011;52486;51.098;13.770;2022-07-18T09:09:28;53.47;;;48.05;;
65751;SDS011;52486;51.098;13.770;2022-07-18T09:11:55;55.92;;;50.15;;
65751;SDS011;52486;51.098;13.770;2022-07-18T09:19:34;55.22;;;49.72;;
65751;SDS011;52486;51.098;13.770;2022-07-18T09:22:12;58.53;;;52.53;;
65751;SDS011;52486;51.098;13.770;2022-07-18T09:27:29;56.40;;;50.88;;
65751;SDS011;52486;51.098;13.770;2022-07-18T09:32:33;61.17;;;54.88;;
65751;SDS011;52486;51.098;13.770;2022-07-18T09:35:13;69.57;;;60.70;;
65751;SDS011;52486;51.098;13.770;2022-07-18T09:37:40;72.85;;;62.03;;
65751;SDS011;52486;51.098;13.770;2022-07-18T09:40:20;84.53;;;66.55;;
65751;SDS011;52486;51.098;13.770;2022-07-18T09:43:00;90.60;;;70.10;;
65751;SDS011;52486;51.098;13.770;2022-07-18T09:48:00;108.43;;;77.25;;
65751;SDS011;52486;51.098;13.770;2022-07-18T09:50:44;110.55;;;77.93;;
65751;SDS011;52486;51.098;13.770;2022-07-18T09:53:26;117.60;;;81.70;;
65751;SDS011;52486;51.098;13.770;2022-07-18T09:55:56;125.07;;;83.60;;
65751;SDS011;52486;51.098;13.770;2022-07-18T09:58:52;128.15;;;84.82;;
65751;SDS011;52486;51.098;13.770;2022-07-18T10:01:18;136.83;;;87.77;;
65751;SDS011;52486;51.098;13.770;2022-07-18T10:03:44;135.60;;;87.47;;
65751;SDS011;52486;51.098;13.770;2022-07-18T10:06:10;147.75;;;91.72;;
65751;SDS011;52486;51.098;13.770;2022-07-18T10:08:36;156.82;;;95.43;;
65751;SDS011;52486;51.098;13.770;2022-07-18T10:11:04;155.90;;;94.32;;
65751;SDS011;52486;51.098;13.770;2022-07-18T10:13:31;169.07;;;98.57;;
65751;SDS011;52486;51.098;13.770;2022-07-18T10:15:58;179.15;;;101.28;;
65751;SDS011;52486;51.098;13.770;2022-07-18T10:18:25;183.38;;;102.78;;
65751;SDS011;52486;51.098;13.770;2022-07-18T10:20:52;186.40;;;103.22;;
65751;SDS011;52486;51.098;13.770;2022-07-18T10:34:28;221.40;;;113.25;;
65751;SDS011;52486;51.098;13.770;2022-07-18T10:39:35;232.27;;;117.03;;
65751;SDS011;52486;51.098;13.770;2022-07-18T10:57:34;239.50;;;118.47;;
65751;SDS011;52486;51.098;13.770;2022-07-18T11:00:05;242.63;;;118.97;;
65751;SDS011;52486;51.098;13.770;2022-07-18T11:02:35;241.63;;;118.63;;
65751;SDS011;52486;51.098;13.770;2022-07-18T11:16:15;248.55;;;120.30;;
65751;SDS011;52486;51.098;13.770;2022-07-18T11:21:31;250.60;;;121.13;;
65751;SDS011;52486;51.098;13.770;2022-07-18T11:24:02;906.13;;;468.02;;
65751;SDS011;52486;51.098;13.770;2022-07-18T11:26:32;1397.80;;;631.00;;
65751;SDS011;52486;51.098;13.770;2022-07-18T11:29:06;1070.43;;;451.05;;
65751;SDS011;52486;51.098;13.770;2022-07-18T11:34:13;1071.63;;;455.13;;
65751;SDS011;52486;51.098;13.770;2022-07-18T11:36:40;1063.43;;;451.77;;
65751;SDS011;52486;51.098;13.770;2022-07-18T11:39:08;1045.15;;;441.30;;
65751;SDS011;52486;51.098;13.770;2022-07-18T11:41:37;1058.95;;;447.45;;
65751;SDS011;52486;51.098;13.770;2022-07-18T11:44:05;981.90;;;404.05;;
65751;SDS011;52486;51.098;13.770;2022-07-18T11:46:42;979.92;;;402.50;;
65751;SDS011;52486;51.098;13.770;2022-07-18T11:49:08;949.95;;;387.92;;
65751;SDS011;52486;51.098;13.770;2022-07-18T11:51:34;914.67;;;372.10;;
65751;SDS011;52486;51.098;13.770;2022-07-18T11:54:02;859.05;;;352.02;;
65751;SDS011;52486;51.098;13.770;2022-07-18T11:56:28;821.13;;;335.57;;
65751;SDS011;52486;51.098;13.770;2022-07-18T11:58:53;840.33;;;343.30;;
65751;SDS011;52486;51.098;13.770;2022-07-18T12:01:21;811.85;;;334.25;;
65751;SDS011;52486;51.098;13.770;2022-07-18T12:03:48;833.78;;;342.88;;
65751;SDS011;52486;51.098;13.770;2022-07-18T12:06:19;853.47;;;351.73;;
65751;SDS011;52486;51.098;13.770;2022-07-18T12:08:49;835.45;;;344.23;;
65751;SDS011;52486;51.098;13.770;2022-07-18T12:11:31;815.33;;;336.52;;
65751;SDS011;52486;51.098;13.770;2022-07-18T12:21:53;820.88;;;339.10;;
65751;SDS011;52486;51.098;13.770;2022-07-18T12:24:32;686.65;;;285.00;;
65751;SDS011;52486;51.098;13.770;2022-07-18T12:27:13;728.05;;;303.80;;
65751;SDS011;52486;51.098;13.770;2022-07-18T12:29:56;920.83;;;382.37;;
65751;SDS011;52486;51.098;13.770;2022-07-18T12:32:48;973.60;;;405.70;;
65751;SDS011;52486;51.098;13.770;2022-07-18T12:37:54;863.75;;;358.17;;
65751;SDS011;52486;51.098;13.770;2022-07-18T12:40:37;693.15;;;286.95;;
65751;SDS011;52486;51.098;13.770;2022-07-18T12:43:06;679.10;;;280.52;;
65751;SDS011;52486;51.098;13.770;2022-07-18T12:45:33;632.92;;;258.75;;
65751;SDS011;52486;51.098;13.770;2022-07-18T12:48:00;626.03;;;255.13;;
65751;SDS011;52486;51.098;13.770;2022-07-18T12:50:26;636.72;;;260.67;;
65751;SDS011;52486;51.098;13.770;2022-07-18T12:52:51;617.80;;;251.23;;
65751;SDS011;52486;51.098;13.770;2022-07-18T12:55:17;593.10;;;240.20;;
65751;SDS011;52486;51.098;13.770;2022-07-18T12:57:43;598.38;;;242.68;;
65751;SDS011;52486;51.098;13.770;2022-07-18T13:00:09;583.30;;;235.00;;
65751;SDS011;52486;51.098;13.770;2022-07-18T13:02:35;654.80;;;266.47;;
65751;SDS011;52486;51.098;13.770;2022-07-18T13:05:01;658.80;;;268.47;;
65751;SDS011;52486;51.098;13.770;2022-07-18T13:07:27;662.28;;;270.00;;
65751;SDS011;52486;51.098;13.770;2022-07-18T13:09:52;649.70;;;265.75;;
65751;SDS011;52486;51.098;13.770;2022-07-18T13:12:18;1513.23;;;655.57;;
65751;SDS011;52486;51.098;13.770;2022-07-18T13:14:44;1201.00;;;504.77;;
65751;SDS011;52486;51.098;13.770;2022-07-18T13:17:09;1197.90;;;475.70;;
65751;SDS011;52486;51.098;13.770;2022-07-18T13:19:35;1147.73;;;446.10;;
65751;SDS011;52486;51.098;13.770;2022-07-18T13:22:00;1086.47;;;413.17;;
65751;SDS011;52486;51.098;13.770;2022-07-18T13:24:26;1092.82;;;413.02;;
65751;SDS011;52486;51.098;13.770;2022-07-18T13:26:52;1052.53;;;390.55;;
65751;SDS011;52486;51.098;13.770;2022-07-18T13:29:18;989.55;;;367.90;;
65751;SDS011;52486;51.098;13.770;2022-07-18T13:31:43;1025.97;;;382.43;;
65751;SDS011;52486;51.098;13.770;2022-07-18T13:34:09;1050.23;;;391.37;;
65751;SDS011;52486;51.098;13.770;2022-07-18T13:36:35;1014.67;;;379.45;;
65751;SDS011;52486;51.098;13.770;2022-07-18T13:39:00;1000.55;;;374.83;;
65751;SDS011;52486;51.098;13.770;2022-07-18T13:41:26;985.10;;;369.10;;
65751;SDS011;52486;51.098;13.770;2022-07-18T13:43:53;962.17;;;361.67;;
65751;SDS011;52486;51.098;13.770;2022-07-18T13:46:19;943.50;;;355.30;;
65751;SDS011;52486;51.098;13.770;2022-07-18T13:48:44;914.25;;;346.00;;
65751;SDS011;52486;51.098;13.770;2022-07-18T13:51:11;886.67;;;336.30;;
65751;SDS011;52486;51.098;13.770;2022-07-18T13:53:37;755.80;;;286.70;;
65751;SDS011;52486;51.098;13.770;2022-07-18T13:56:03;836.92;;;317.35;;
65751;SDS011;52486;51.098;13.770;2022-07-18T13:58:29;845.47;;;321.10;;
65751;SDS011;52486;51.098;13.770;2022-07-18T14:00:54;829.87;;;314.97;;
65751;SDS011;52486;51.098;13.770;2022-07-18T14:03:20;812.20;;;308.10;;
65751;SDS011;52486;51.098;13.770;2022-07-18T14:05:46;809.40;;;307.20;;
65751;SDS011;52486;51.098;13.770;2022-07-18T14:08:11;801.30;;;304.00;;
65751;SDS011;52486;51.098;13.770;2022-07-18T14:10:37;780.30;;;295.67;;
65751;SDS011;52486;51.098;13.770;2022-07-18T14:13:03;773.58;;;293.70;;
65751;SDS011;52486;51.098;13.770;2022-07-18T14:15:29;738.67;;;279.15;;
65751;SDS011;52486;51.098;13.770;2022-07-18T14:17:55;730.08;;;276.42;;
65751;SDS011;52486;51.098;13.770;2022-07-18T14:20:21;737.20;;;278.77;;
65751;SDS011;52486;51.098;13.770;2022-07-18T14:22:47;722.38;;;273.52;;
65751;SDS011;52486;51.098;13.770;2022-07-18T14:25:14;712.08;;;268.77;;
65751;SDS011;52486;51.098;13.770;2022-07-18T14:27:40;700.17;;;264.20;;
65751;SDS011;52486;51.098;13.770;2022-07-18T14:30:07;698.22;;;263.60;;
65751;SDS011;52486;51.098;13.770;2022-07-18T14:32:35;685.42;;;258.58;;
65751;SDS011;52486;51.098;13.770;2022-07-18T14:35:01;677.22;;;254.73;;
65751;SDS011;52486;51.098;13.770;2022-07-18T14:37:26;669.53;;;252.32;;
65751;SDS011;52486;51.098;13.770;2022-07-18T14:39:52;666.80;;;251.33;;
65751;SDS011;52486;51.098;13.770;2022-07-18T14:42:17;665.60;;;250.10;;
65751;SDS011;52486;51.098;13.770;2022-07-18T14:44:43;643.33;;;241.38;;
65751;SDS011;52486;51.098;13.770;2022-07-18T14:47:09;622.93;;;233.43;;
65751;SDS011;52486;51.098;13.770;2022-07-18T14:49:34;611.72;;;229.57;;
65751;SDS011;52486;51.098;13.770;2022-07-18T14:52:00;617.65;;;231.75;;
65751;SDS011;52486;51.098;13.770;2022-07-18T14:54:26;626.60;;;235.60;;
65751;SDS011;52486;51.098;13.770;2022-07-18T14:56:53;617.00;;;231.40;;
65751;SDS011;52486;51.098;13.770;2022-07-18T14:59:19;610.33;;;228.83;;